createdAt,value
2023-05-14T00:00:23.197Z,15.02
2023-05-14T00:01:25.716Z,15.07
2023-05-14T00:02:28.303Z,15.06
2023-05-14T00:03:31.314Z,15.06
2023-05-14T00:04:33.649Z,15.13
2023-05-14T00:05:36.105Z,15.09
2023-05-14T00:06:38.277Z,14.98
2023-05-14T00:07:40.472Z,14.90
2023-05-14T00:08:42.645Z,14.88
2023-05-14T00:09:44.806Z,14.80
2023-05-14T00:10:47.052Z,14.76
2023-05-14T00:11:49.203Z,14.72
2023-05-14T00:12:52.063Z,14.72
2023-05-14T00:13:54.252Z,14.77
2023-05-14T00:14:56.680Z,14.77
2023-05-14T00:15:58.856Z,14.79
2023-05-14T00:17:01.451Z,14.82
2023-05-14T00:18:03.879Z,14.82
2023-05-14T00:19:06.235Z,14.83
2023-05-14T00:20:08.959Z,14.89
2023-05-14T00:21:11.196Z,14.85
2023-05-14T00:22:13.565Z,14.84
2023-05-14T00:23:15.888Z,14.74
2023-05-14T00:24:18.252Z,14.83
2023-05-14T00:25:20.434Z,14.81
2023-05-14T00:26:22.699Z,14.77
2023-05-14T00:27:26.020Z,14.68
2023-05-14T00:28:28.210Z,14.68
2023-05-14T00:29:30.530Z,14.46
2023-05-14T00:30:32.879Z,14.36
2023-05-14T00:31:35.398Z,14.36
2023-05-14T00:32:38.481Z,14.36
2023-05-14T00:33:41.630Z,14.27
2023-05-14T00:34:43.872Z,14.33
2023-05-14T00:35:46.279Z,14.19
2023-05-14T00:36:48.471Z,14.23
2023-05-14T00:37:50.835Z,14.29
2023-05-14T00:38:53.108Z,14.33
2023-05-14T00:39:55.933Z,14.43
2023-05-14T00:40:58.317Z,14.47
2023-05-14T00:42:00.547Z,14.44
2023-05-14T00:43:03.723Z,14.36
2023-05-14T00:44:06.026Z,14.36
2023-05-14T00:45:09.108Z,14.31
2023-05-14T00:46:12.703Z,14.30
2023-05-14T00:47:14.965Z,14.12
2023-05-14T00:48:18.089Z,14.14
2023-05-14T00:49:21.173Z,14.17
2023-05-14T00:50:23.998Z,14.13
2023-05-14T00:51:26.863Z,14.07
2023-05-14T00:52:29.074Z,14.09
2023-05-14T00:53:31.564Z,14.01
2023-05-14T00:54:34.834Z,14.04
2023-05-14T00:55:38.813Z,14.05
2023-05-14T00:56:41.260Z,13.86
2023-05-14T00:57:43.851Z,13.79
2023-05-14T00:58:46.107Z,13.67
2023-05-14T00:59:48.768Z,13.59
2023-05-14T01:00:52.278Z,13.57
2023-05-14T01:01:54.612Z,13.73
2023-05-14T01:02:57.105Z,13.82
2023-05-14T01:04:00.716Z,13.81
2023-05-14T01:05:03.689Z,13.89
2023-05-14T01:06:29.459Z,13.93
2023-05-14T01:07:59.154Z,13.95
2023-05-14T01:09:28.820Z,13.85
2023-05-14T01:10:45.765Z,13.54
2023-05-14T01:12:00.143Z,13.59
2023-05-14T01:13:18.346Z,13.71
2023-05-14T01:14:22.083Z,13.73
2023-05-14T01:15:28.865Z,13.80
2023-05-14T01:16:34.350Z,13.81
2023-05-14T01:17:59.852Z,13.84
2023-05-14T01:19:05.019Z,13.87
2023-05-14T01:20:08.428Z,13.86
2023-05-14T01:21:43.017Z,13.71
2023-05-14T01:22:45.385Z,13.68
2023-05-14T01:23:47.802Z,13.69
2023-05-14T01:24:50.028Z,13.69
2023-05-14T01:25:52.407Z,13.73
2023-05-14T01:27:07.236Z,13.75
2023-05-14T01:28:18.031Z,13.74
2023-05-14T01:29:29.146Z,13.73
2023-05-14T01:30:36.765Z,13.70
2023-05-14T01:31:43.070Z,13.67
2023-05-14T01:32:51.161Z,13.67
2023-05-14T01:33:56.206Z,13.67
2023-05-14T01:35:00.747Z,13.80
2023-05-14T01:36:04.732Z,13.83
2023-05-14T01:37:08.570Z,13.79
2023-05-14T01:38:13.989Z,13.80
2023-05-14T01:39:16.753Z,13.84
2023-05-14T01:40:19.418Z,13.76
2023-05-14T01:41:23.652Z,13.78
2023-05-14T01:42:26.482Z,13.70
2023-05-14T01:43:30.131Z,13.70
2023-05-14T01:44:33.638Z,13.74
2023-05-14T01:45:36.736Z,13.52
2023-05-14T01:46:39.295Z,13.21
2023-05-14T01:47:41.713Z,13.02
2023-05-14T01:48:44.171Z,12.80
2023-05-14T01:49:46.343Z,12.74
2023-05-14T01:50:48.732Z,12.63
2023-05-14T01:51:51.397Z,12.69
2023-05-14T01:52:56.823Z,12.86
2023-05-14T01:53:59.257Z,12.98
2023-05-14T01:55:01.480Z,13.09
2023-05-14T01:56:04.113Z,13.13
2023-05-14T01:57:06.298Z,13.21
2023-05-14T01:58:08.737Z,13.23
2023-05-14T01:59:11.112Z,13.26
2023-05-14T02:00:14.201Z,13.28
2023-05-14T02:01:16.956Z,13.38
2023-05-14T02:02:19.516Z,13.36
2023-05-14T02:03:21.883Z,13.34
2023-05-14T02:04:24.201Z,13.36
2023-05-14T02:05:27.384Z,13.33
2023-05-14T02:06:29.908Z,13.33
2023-05-14T02:07:32.386Z,13.34
2023-05-14T02:08:34.754Z,13.37
2023-05-14T02:09:37.016Z,13.31
2023-05-14T02:10:39.520Z,13.40
2023-05-14T02:11:41.715Z,13.32
2023-05-14T02:12:44.142Z,13.42
2023-05-14T02:13:46.495Z,13.32
2023-05-14T02:14:48.761Z,13.10
2023-05-14T02:15:51.305Z,13.05
2023-05-14T02:16:53.561Z,13.08
2023-05-14T02:17:55.950Z,13.19
2023-05-14T02:18:58.706Z,13.22
2023-05-14T02:20:00.973Z,13.19
2023-05-14T02:21:03.158Z,13.17
2023-05-14T02:22:05.691Z,13.18
2023-05-14T02:23:08.946Z,13.12
2023-05-14T02:24:11.507Z,13.04
2023-05-14T02:25:13.700Z,12.86
2023-05-14T02:26:15.928Z,12.89
2023-05-14T02:27:18.575Z,12.89
2023-05-14T02:28:20.782Z,12.92
2023-05-14T02:29:23.508Z,12.69
2023-05-14T02:30:25.862Z,12.74
2023-05-14T02:31:28.166Z,12.79
2023-05-14T02:32:30.624Z,12.78
2023-05-14T02:33:33.587Z,12.73
2023-05-14T02:34:36.236Z,12.79
2023-05-14T02:35:38.434Z,12.85
2023-05-14T02:36:41.103Z,12.90
2023-05-14T02:37:43.447Z,12.93
2023-05-14T02:38:45.881Z,12.93
2023-05-14T02:39:49.073Z,12.93
2023-05-14T02:40:51.459Z,12.93
2023-05-14T02:41:53.836Z,12.92
2023-05-14T02:42:56.083Z,12.96
2023-05-14T02:43:58.813Z,13.06
2023-05-14T02:45:01.026Z,13.06
2023-05-14T02:46:03.742Z,13.07
2023-05-14T02:47:06.246Z,13.01
2023-05-14T02:48:08.738Z,13.01
2023-05-14T02:49:11.594Z,12.84
2023-05-14T02:50:13.836Z,12.67
2023-05-14T02:51:16.681Z,12.58
2023-05-14T02:52:19.136Z,12.67
2023-05-14T02:53:21.402Z,12.55
2023-05-14T02:54:23.840Z,12.53
2023-05-14T02:55:26.524Z,12.37
2023-05-14T02:56:28.766Z,12.28
2023-05-14T02:57:31.182Z,12.22
2023-05-14T02:58:34.037Z,12.21
2023-05-14T02:59:36.681Z,12.34
2023-05-14T03:00:39.274Z,12.47
2023-05-14T03:01:42.562Z,12.44
2023-05-14T03:02:45.543Z,12.33
2023-05-14T03:03:49.366Z,12.26
2023-05-14T03:04:52.156Z,12.13
2023-05-14T03:05:54.420Z,12.07
2023-05-14T03:06:57.010Z,11.87
2023-05-14T03:07:59.267Z,11.64
2023-05-14T03:09:01.685Z,11.56
2023-05-14T03:10:07.271Z,11.68
2023-05-14T03:11:09.466Z,11.72
2023-05-14T03:12:12.897Z,11.90
2023-05-14T03:13:17.896Z,12.05
2023-05-14T03:14:20.155Z,12.08
2023-05-14T03:15:22.723Z,12.21
2023-05-14T03:16:25.570Z,12.36
2023-05-14T03:17:27.807Z,12.44
2023-05-14T03:18:30.853Z,12.39
2023-05-14T03:19:33.479Z,12.40
2023-05-14T03:20:35.949Z,12.24
2023-05-14T03:21:38.364Z,12.26
2023-05-14T03:22:40.960Z,12.32
2023-05-14T03:23:43.304Z,12.07
2023-05-14T03:24:46.441Z,11.92
2023-05-14T03:25:48.823Z,11.89
2023-05-14T03:26:51.258Z,11.92
2023-05-14T03:27:53.673Z,11.91
2023-05-14T03:28:55.972Z,12.10
2023-05-14T03:29:58.502Z,12.23
2023-05-14T03:31:01.272Z,12.17
2023-05-14T03:32:03.717Z,12.02
2023-05-14T03:33:06.280Z,12.11
2023-05-14T03:34:11.677Z,11.95
2023-05-14T03:35:14.076Z,12.07
2023-05-14T03:36:16.263Z,12.08
2023-05-14T03:37:18.689Z,12.18
2023-05-14T03:38:20.934Z,12.18
2023-05-14T03:39:25.874Z,12.17
2023-05-14T03:40:28.239Z,11.92
2023-05-14T03:41:30.452Z,11.87
2023-05-14T03:42:33.858Z,12.03
2023-05-14T03:43:36.141Z,12.02
2023-05-14T03:44:38.437Z,11.96
2023-05-14T03:45:41.112Z,11.86
2023-05-14T03:46:43.295Z,11.88
2023-05-14T03:47:45.774Z,11.79
2023-05-14T03:48:48.148Z,11.74
2023-05-14T03:49:50.663Z,11.93
2023-05-14T03:50:53.288Z,12.09
2023-05-14T03:51:55.525Z,12.05
2023-05-14T03:52:57.700Z,11.98
2023-05-14T03:54:00.048Z,12.12
2023-05-14T03:55:03.701Z,12.01
2023-05-14T03:56:06.415Z,11.76
2023-05-14T03:57:08.635Z,11.68
2023-05-14T03:58:14.433Z,11.58
2023-05-14T03:59:17.289Z,11.54
2023-05-14T04:00:19.852Z,11.47
2023-05-14T04:01:22.184Z,11.50
2023-05-14T04:02:24.447Z,11.44
2023-05-14T04:03:26.753Z,11.36
2023-05-14T04:04:29.121Z,11.31
2023-05-14T04:05:31.749Z,11.34
2023-05-14T04:06:34.167Z,11.42
2023-05-14T04:07:37.509Z,11.54
2023-05-14T04:08:39.750Z,11.48
2023-05-14T04:09:41.946Z,11.45
2023-05-14T04:10:44.594Z,11.38
2023-05-14T04:11:46.849Z,11.44
2023-05-14T04:12:49.056Z,11.30
2023-05-14T04:13:51.521Z,11.35
2023-05-14T04:14:53.990Z,11.29
2023-05-14T04:15:56.342Z,11.32
2023-05-14T04:17:00.337Z,11.32
2023-05-14T04:18:02.802Z,11.43
2023-05-14T04:19:06.055Z,11.61
2023-05-14T04:20:09.144Z,11.62
2023-05-14T04:21:11.552Z,11.72
2023-05-14T04:22:13.803Z,11.64
2023-05-14T04:23:16.266Z,11.72
2023-05-14T04:24:18.471Z,11.74
2023-05-14T04:25:20.980Z,11.89
2023-05-14T04:26:23.518Z,12.07
2023-05-14T04:27:25.784Z,12.15
2023-05-14T04:28:28.171Z,12.19
2023-05-14T04:29:30.551Z,12.30
2023-05-14T04:30:32.976Z,12.44
2023-05-14T04:31:35.503Z,12.40
2023-05-14T04:32:38.173Z,12.41
2023-05-14T04:33:40.709Z,12.39
2023-05-14T04:34:43.428Z,12.54
2023-05-14T04:35:46.023Z,12.67
2023-05-14T04:36:48.600Z,12.46
2023-05-14T04:37:50.818Z,12.68
2023-05-14T04:38:53.040Z,12.78
2023-05-14T04:39:55.478Z,12.69
2023-05-14T04:40:58.360Z,12.54
2023-05-14T04:42:01.126Z,12.41
2023-05-14T04:43:03.322Z,12.67
2023-05-14T04:44:05.759Z,12.63
2023-05-14T04:45:08.852Z,12.64
2023-05-14T04:46:11.819Z,12.72
2023-05-14T04:47:14.363Z,12.92
2023-05-14T04:48:17.079Z,12.80
2023-05-14T04:49:19.271Z,12.89
2023-05-14T04:50:22.038Z,12.67
2023-05-14T04:51:24.820Z,12.54
2023-05-14T04:52:27.076Z,12.50
2023-05-14T04:53:29.516Z,12.69
2023-05-14T04:54:31.841Z,12.81
2023-05-14T04:55:34.104Z,12.86
2023-05-14T04:56:36.717Z,12.97
2023-05-14T04:57:38.921Z,12.94
2023-05-14T04:58:41.132Z,12.87
2023-05-14T04:59:43.556Z,12.97
2023-05-14T05:00:45.808Z,13.05
2023-05-14T05:01:48.245Z,12.97
2023-05-14T05:02:50.806Z,12.74
2023-05-14T05:03:53.125Z,12.90
2023-05-14T05:04:55.380Z,12.82
2023-05-14T05:05:57.952Z,13.00
2023-05-14T05:07:00.338Z,13.14
2023-05-14T05:08:02.627Z,13.29
2023-05-14T05:09:04.816Z,13.10
2023-05-14T05:10:07.836Z,13.01
2023-05-14T05:11:19.681Z,13.15
2023-05-14T05:12:23.103Z,13.02
2023-05-14T05:13:25.263Z,13.00
2023-05-14T05:14:27.685Z,12.86
2023-05-14T05:15:29.861Z,12.82
2023-05-14T05:16:32.322Z,12.55
2023-05-14T05:17:34.733Z,12.64
2023-05-14T05:18:39.082Z,12.74
2023-05-14T05:19:44.085Z,12.87
2023-05-14T05:20:46.953Z,13.10
2023-05-14T05:21:49.592Z,13.00
2023-05-14T05:22:52.251Z,13.05
2023-05-14T05:23:54.675Z,13.06
2023-05-14T05:24:56.973Z,13.01
2023-05-14T05:25:59.151Z,12.71
2023-05-14T05:27:01.772Z,12.44
2023-05-14T05:28:04.136Z,12.41
2023-05-14T05:29:06.494Z,12.51
2023-05-14T05:30:09.098Z,12.60
2023-05-14T05:31:11.562Z,12.92
2023-05-14T05:32:13.793Z,12.93
2023-05-14T05:33:16.248Z,12.71
2023-05-14T05:34:19.467Z,12.78
2023-05-14T05:35:21.813Z,13.04
2023-05-14T05:36:24.204Z,13.08
2023-05-14T05:37:26.786Z,13.11
2023-05-14T05:38:29.006Z,13.03
2023-05-14T05:39:34.884Z,12.94
2023-05-14T05:40:37.696Z,13.17
2023-05-14T05:41:40.688Z,13.32
2023-05-14T05:42:43.342Z,13.49
2023-05-14T05:43:45.545Z,13.85
2023-05-14T05:44:47.763Z,13.72
2023-05-14T05:45:50.182Z,13.91
2023-05-14T05:46:52.528Z,13.94
2023-05-14T05:47:54.946Z,14.24
2023-05-14T05:48:57.173Z,14.51
2023-05-14T05:50:00.192Z,14.39
2023-05-14T05:51:02.658Z,14.55
2023-05-14T05:52:05.262Z,14.47
2023-05-14T05:53:07.702Z,14.23
2023-05-14T05:54:09.908Z,14.29
2023-05-14T05:55:12.138Z,14.30
2023-05-14T05:56:14.328Z,14.45
2023-05-14T05:57:16.803Z,14.61
2023-05-14T05:58:19.637Z,14.81
2023-05-14T05:59:21.846Z,14.61
2023-05-14T06:00:24.803Z,14.63
2023-05-14T06:01:27.881Z,14.76
2023-05-14T06:02:30.486Z,14.68
2023-05-14T06:03:32.856Z,14.91
2023-05-14T06:04:35.323Z,15.09
2023-05-14T06:05:37.660Z,15.26
2023-05-14T06:06:40.102Z,15.14
2023-05-14T06:07:42.797Z,15.04
2023-05-14T06:08:44.974Z,14.72
2023-05-14T06:09:47.376Z,14.69
2023-05-14T06:10:49.801Z,14.29
2023-05-14T06:11:51.974Z,14.31
2023-05-14T06:12:54.848Z,14.50
2023-05-14T06:13:57.346Z,14.45
2023-05-14T06:14:59.512Z,14.63
2023-05-14T06:16:01.776Z,14.66
2023-05-14T06:17:04.319Z,14.78
2023-05-14T06:18:06.811Z,15.06
2023-05-14T06:19:09.166Z,15.14
2023-05-14T06:20:11.806Z,15.46
2023-05-14T06:21:13.997Z,15.63
2023-05-14T06:22:17.236Z,15.81
2023-05-14T06:23:19.472Z,15.45
2023-05-14T06:24:21.659Z,14.97
2023-05-14T06:25:24.078Z,14.90
2023-05-14T06:26:26.425Z,14.95
2023-05-14T06:27:28.708Z,14.76
2023-05-14T06:28:31.332Z,15.05
2023-05-14T06:29:33.580Z,15.11
2023-05-14T06:30:35.831Z,14.97
2023-05-14T06:31:38.305Z,15.09
2023-05-14T06:32:40.626Z,15.01
2023-05-14T06:33:43.054Z,15.16
2023-05-14T06:34:45.407Z,15.48
2023-05-14T06:35:47.613Z,15.54
2023-05-14T06:36:49.834Z,15.58
2023-05-14T06:37:52.077Z,15.87
2023-05-14T06:38:54.624Z,16.09
2023-05-14T06:39:57.870Z,16.22
2023-05-14T06:41:00.354Z,16.43
2023-05-14T06:42:02.601Z,16.35
2023-05-14T06:43:06.709Z,16.07
2023-05-14T06:44:09.962Z,15.92
2023-05-14T06:45:12.247Z,16.24
2023-05-14T06:46:14.627Z,16.52
2023-05-14T06:47:16.849Z,16.42
2023-05-14T06:48:20.223Z,16.31
2023-05-14T06:49:22.814Z,16.23
2023-05-14T06:50:25.268Z,16.40
2023-05-14T06:51:27.812Z,16.66
2023-05-14T06:52:29.990Z,16.99
2023-05-14T06:53:32.483Z,16.89
2023-05-14T06:54:34.688Z,17.10
2023-05-14T06:55:36.936Z,17.26
2023-05-14T06:56:39.209Z,17.50
2023-05-14T06:57:41.753Z,17.64
2023-05-14T06:58:44.100Z,17.77
2023-05-14T06:59:46.298Z,18.09
2023-05-14T07:00:48.690Z,18.39
2023-05-14T07:01:50.908Z,18.73
2023-05-14T07:02:53.259Z,19.15
2023-05-14T07:03:55.920Z,19.16
2023-05-14T07:04:58.194Z,18.72
2023-05-14T07:06:02.382Z,18.73
2023-05-14T07:07:05.722Z,18.41
2023-05-14T07:08:07.975Z,18.21
2023-05-14T07:09:11.108Z,18.08
2023-05-14T07:10:13.409Z,18.48
2023-05-14T07:11:15.931Z,18.50
2023-05-14T07:12:18.150Z,18.71
2023-05-14T07:13:20.470Z,18.78
2023-05-14T07:14:22.852Z,18.56
2023-05-14T07:15:25.042Z,18.81
2023-05-14T07:16:27.368Z,19.10
2023-05-14T07:17:29.708Z,19.12
2023-05-14T07:18:32.157Z,19.29
2023-05-14T07:19:34.640Z,19.40
2023-05-14T07:20:36.803Z,19.48
2023-05-14T07:21:38.990Z,19.58
2023-05-14T07:22:41.429Z,19.76
2023-05-14T07:23:43.629Z,20.03
2023-05-14T07:24:46.077Z,20.19
2023-05-14T07:25:48.284Z,20.61
2023-05-14T07:26:50.794Z,20.35
2023-05-14T07:27:52.995Z,21.00
2023-05-14T07:28:55.678Z,21.66
2023-05-14T07:29:58.068Z,22.25
2023-05-14T07:31:00.943Z,22.51
2023-05-14T07:32:03.593Z,22.61
2023-05-14T07:33:05.900Z,22.86
2023-05-14T07:34:09.337Z,22.80
2023-05-14T07:35:11.861Z,22.98
2023-05-14T07:36:14.105Z,22.98
2023-05-14T07:37:16.726Z,22.80
2023-05-14T07:38:19.631Z,23.08
2023-05-14T07:39:22.266Z,23.50
2023-05-14T07:40:27.457Z,23.58
2023-05-14T07:41:29.728Z,22.92
2023-05-14T07:42:36.497Z,22.07
2023-05-14T07:43:40.589Z,22.32
2023-05-14T07:44:43.019Z,22.79
2023-05-14T07:45:45.587Z,22.81
2023-05-14T07:46:48.006Z,22.70
2023-05-14T07:47:52.052Z,22.92
2023-05-14T07:48:54.728Z,23.02
2023-05-14T07:49:57.700Z,23.19
2023-05-14T07:51:00.169Z,23.72
2023-05-14T07:52:02.812Z,23.96
2023-05-14T07:53:04.994Z,24.02
2023-05-14T07:54:07.481Z,24.25
2023-05-14T07:55:10.410Z,24.16
2023-05-14T07:56:12.655Z,22.93
2023-05-14T07:57:14.842Z,22.86
2023-05-14T07:58:16.999Z,22.76
2023-05-14T07:59:19.394Z,22.70
2023-05-14T08:00:22.483Z,22.75
2023-05-14T08:01:25.169Z,22.84
2023-05-14T08:02:28.173Z,23.08
2023-05-14T08:03:30.734Z,22.86
2023-05-14T08:04:33.188Z,22.72
2023-05-14T08:05:35.603Z,21.81
2023-05-14T08:06:38.058Z,21.80
2023-05-14T08:07:40.349Z,22.30
2023-05-14T08:08:42.744Z,22.97
2023-05-14T08:09:45.112Z,23.17
2023-05-14T08:10:47.328Z,23.31
2023-05-14T08:11:49.726Z,23.67
2023-05-14T08:12:51.914Z,23.80
2023-05-14T08:13:54.143Z,24.11
2023-05-14T08:14:56.572Z,23.82
2023-05-14T08:15:58.904Z,24.02
2023-05-14T08:17:01.348Z,23.86
2023-05-14T08:18:03.873Z,22.57
2023-05-14T08:19:06.434Z,22.23
2023-05-14T08:20:10.029Z,22.64
2023-05-14T08:21:12.230Z,22.69
2023-05-14T08:22:14.619Z,23.23
2023-05-14T08:23:16.790Z,23.85
2023-05-14T08:24:19.236Z,23.15
2023-05-14T08:25:21.621Z,22.95
2023-05-14T08:26:23.920Z,23.10
2023-05-14T08:27:27.968Z,23.56
2023-05-14T08:28:30.343Z,23.25
2023-05-14T08:29:32.659Z,22.95
2023-05-14T08:30:35.110Z,23.43
2023-05-14T08:31:37.475Z,22.27
2023-05-14T08:32:39.708Z,21.56
2023-05-14T08:33:42.010Z,22.26
2023-05-14T08:34:44.222Z,22.64
2023-05-14T08:35:46.623Z,23.07
2023-05-14T08:36:50.964Z,22.77
2023-05-14T08:37:53.226Z,22.52
2023-05-14T08:38:55.423Z,22.52
2023-05-14T08:39:57.617Z,22.49
2023-05-14T08:41:00.554Z,22.56
2023-05-14T08:42:06.680Z,22.17
2023-05-14T08:43:10.865Z,22.12
2023-05-14T08:44:16.908Z,22.76
2023-05-14T08:45:21.304Z,23.16
2023-05-14T08:46:25.249Z,23.36
2023-05-14T08:47:30.344Z,23.55
2023-05-14T08:48:34.524Z,23.17
2023-05-14T08:49:42.670Z,23.46
2023-05-14T08:50:45.513Z,23.41
2023-05-14T08:51:48.593Z,23.92
2023-05-14T08:52:51.649Z,24.08
2023-05-14T08:53:54.065Z,23.03
2023-05-14T08:54:57.301Z,22.70
2023-05-14T08:56:05.008Z,22.75
2023-05-14T08:57:10.715Z,23.16
2023-05-14T08:58:13.133Z,23.53
2023-05-14T08:59:15.662Z,23.05
2023-05-14T09:00:18.693Z,22.53
2023-05-14T09:01:22.097Z,22.60
2023-05-14T09:02:28.423Z,22.25
2023-05-14T09:03:31.307Z,22.78
2023-05-14T09:04:34.935Z,22.94
2023-05-14T09:05:37.476Z,23.01
2023-05-14T09:06:42.111Z,22.96
2023-05-14T09:07:45.146Z,23.10
2023-05-14T09:08:47.850Z,23.44
2023-05-14T09:09:51.561Z,23.10
2023-05-14T09:10:53.768Z,23.07
2023-05-14T09:11:56.126Z,22.67
2023-05-14T09:12:58.645Z,22.85
2023-05-14T09:14:00.834Z,22.85
2023-05-14T09:15:03.436Z,23.04
2023-05-14T09:16:06.184Z,22.74
2023-05-14T09:17:08.873Z,22.65
2023-05-14T09:18:11.326Z,22.68
2023-05-14T09:19:15.602Z,22.90
2023-05-14T09:20:18.706Z,23.01
2023-05-14T09:21:21.429Z,22.67
2023-05-14T09:22:23.718Z,23.02
2023-05-14T09:23:27.160Z,22.73
2023-05-14T09:24:29.608Z,22.40
2023-05-14T09:25:32.391Z,22.15
2023-05-14T09:26:35.842Z,22.53
2023-05-14T09:27:38.672Z,22.56
2023-05-14T09:28:44.414Z,23.11
2023-05-14T09:29:47.841Z,22.97
2023-05-14T09:30:52.160Z,22.87
2023-05-14T09:31:55.770Z,23.21
2023-05-14T09:32:58.036Z,22.76
2023-05-14T09:34:00.650Z,21.74
2023-05-14T09:35:18.282Z,21.59
2023-05-14T09:36:20.825Z,21.48
2023-05-14T09:37:26.102Z,22.21
2023-05-14T09:38:32.253Z,22.80
2023-05-14T09:39:38.685Z,23.26
2023-05-14T09:40:41.607Z,23.01
2023-05-14T09:41:43.960Z,23.45
2023-05-14T09:42:46.819Z,23.84
2023-05-14T09:43:50.494Z,23.75
2023-05-14T09:44:53.773Z,22.91
2023-05-14T09:45:56.027Z,23.02
2023-05-14T09:46:58.474Z,23.17
2023-05-14T09:48:01.839Z,23.11
2023-05-14T09:49:04.337Z,23.11
2023-05-14T09:50:07.411Z,23.45
2023-05-14T09:51:10.350Z,23.73
2023-05-14T09:52:12.754Z,23.98
2023-05-14T09:53:15.148Z,24.14
2023-05-14T09:54:17.656Z,23.85
2023-05-14T09:55:20.724Z,23.05
2023-05-14T09:56:23.591Z,22.96
2023-05-14T09:57:27.092Z,22.86
2023-05-14T09:58:29.727Z,22.83
2023-05-14T09:59:31.880Z,22.44
2023-05-14T10:00:34.642Z,22.15
2023-05-14T10:01:38.313Z,21.80
2023-05-14T10:02:43.041Z,21.27
2023-05-14T10:03:45.669Z,21.62
2023-05-14T10:04:49.764Z,21.81
2023-05-14T10:05:53.380Z,21.82
2023-05-14T10:06:56.912Z,22.00
2023-05-14T10:08:03.249Z,22.41
2023-05-14T10:09:13.463Z,22.92
2023-05-14T10:10:18.681Z,23.12
2023-05-14T10:11:27.403Z,23.31
2023-05-14T10:12:37.073Z,23.63
2023-05-14T10:13:42.152Z,22.78
2023-05-14T10:14:53.361Z,22.94
2023-05-14T10:16:06.299Z,23.13
2023-05-14T10:17:18.527Z,22.94
2023-05-14T10:18:23.569Z,22.29
2023-05-14T10:19:26.691Z,22.08
2023-05-14T10:20:30.638Z,22.43
2023-05-14T10:21:36.097Z,22.20
2023-05-14T10:22:39.048Z,21.99
2023-05-14T10:23:42.495Z,21.99
2023-05-14T10:24:46.073Z,22.38
2023-05-14T10:25:49.031Z,22.37
2023-05-14T10:26:52.233Z,22.41
2023-05-14T10:27:55.424Z,22.19
2023-05-14T10:28:58.536Z,21.81
2023-05-14T10:30:00.732Z,22.13
2023-05-14T10:31:03.765Z,22.27
2023-05-14T10:32:07.584Z,22.40
2023-05-14T10:33:13.880Z,22.58
2023-05-14T10:34:38.268Z,22.79
2023-05-14T10:36:06.905Z,22.41
2023-05-14T10:37:14.953Z,22.52
2023-05-14T10:38:17.335Z,22.25
2023-05-14T10:39:19.543Z,22.28
2023-05-14T10:40:24.667Z,22.54
2023-05-14T10:41:27.219Z,22.78
2023-05-14T10:42:40.664Z,22.79
2023-05-14T10:43:44.426Z,22.85
2023-05-14T10:44:52.721Z,22.28
2023-05-14T10:45:55.981Z,22.66
2023-05-14T10:46:58.956Z,22.28
2023-05-14T10:48:01.881Z,22.43
2023-05-14T10:49:04.371Z,22.73
2023-05-14T10:50:08.634Z,22.28
2023-05-14T10:51:11.850Z,22.07
2023-05-14T10:52:17.359Z,22.52
2023-05-14T10:53:20.039Z,22.74
2023-05-14T10:54:23.488Z,22.92
2023-05-14T10:55:25.985Z,22.87
2023-05-14T10:56:29.085Z,23.00
2023-05-14T10:57:38.101Z,23.00
2023-05-14T10:58:45.108Z,22.76
2023-05-14T10:59:56.026Z,21.99
2023-05-14T11:00:59.281Z,22.27
2023-05-14T11:02:05.604Z,22.52
2023-05-14T11:03:08.093Z,22.72
2023-05-14T11:04:18.686Z,22.65
2023-05-14T11:05:20.976Z,22.21
2023-05-14T11:06:23.152Z,22.47
2023-05-14T11:07:29.784Z,22.31
2023-05-14T11:08:32.668Z,22.11
2023-05-14T11:09:35.233Z,22.20
2023-05-14T11:10:39.259Z,22.55
2023-05-14T11:11:41.642Z,22.27
2023-05-14T11:12:46.300Z,21.81
2023-05-14T11:13:49.913Z,21.47
2023-05-14T11:14:52.121Z,21.58
2023-05-14T11:15:55.754Z,21.73
2023-05-14T11:16:58.131Z,22.13
2023-05-14T11:18:00.511Z,21.88
2023-05-14T11:19:04.839Z,22.01
2023-05-14T11:20:08.839Z,21.68
2023-05-14T11:21:11.089Z,21.66
2023-05-14T11:22:16.328Z,21.92
2023-05-14T11:23:18.552Z,22.21
2023-05-14T11:24:21.331Z,22.50
2023-05-14T11:25:25.702Z,22.40
2023-05-14T11:26:28.157Z,22.48
2023-05-14T11:27:31.368Z,22.69
2023-05-14T11:28:34.514Z,22.03
2023-05-14T11:29:44.701Z,21.58
2023-05-14T11:30:47.104Z,21.52
2023-05-14T11:31:50.635Z,21.86
2023-05-14T11:32:54.292Z,21.85
2023-05-14T11:33:57.004Z,22.12
2023-05-14T11:34:59.441Z,22.44
2023-05-14T11:36:01.797Z,22.64
2023-05-14T11:37:07.930Z,21.99
2023-05-14T11:38:17.384Z,22.22
2023-05-14T11:39:19.706Z,22.08
2023-05-14T11:40:22.352Z,21.53
2023-05-14T11:41:26.267Z,21.87
2023-05-14T11:42:28.489Z,21.87
2023-05-14T11:43:30.925Z,21.81
2023-05-14T11:44:33.362Z,21.76
2023-05-14T11:46:39.239Z,22.12
2023-05-14T11:47:42.817Z,22.38
2023-05-14T11:48:45.750Z,22.32
2023-05-14T11:50:52.086Z,21.45
2023-05-14T11:52:02.244Z,21.48
2023-05-14T11:53:04.440Z,21.80
2023-05-14T11:54:06.658Z,21.60
2023-05-14T11:55:13.203Z,21.67
2023-05-14T11:56:15.962Z,21.70
2023-05-14T11:57:22.615Z,21.78
2023-05-14T11:58:25.362Z,21.94
2023-05-14T11:59:28.859Z,21.75
2023-05-14T12:00:34.096Z,21.96
2023-05-14T12:01:39.575Z,22.23
2023-05-14T12:02:41.912Z,22.41
2023-05-14T12:04:00.406Z,22.26
2023-05-14T12:05:02.733Z,22.53
2023-05-14T12:06:07.589Z,22.57
2023-05-14T12:07:12.579Z,22.13
2023-05-14T12:08:28.331Z,22.30
2023-05-14T12:09:37.693Z,21.88
2023-05-14T12:10:42.950Z,21.86
2023-05-14T12:11:46.534Z,22.00
2023-05-14T12:12:49.175Z,22.14
2023-05-14T12:13:52.966Z,22.11
2023-05-14T12:14:55.340Z,22.01
2023-05-14T12:15:59.838Z,22.29
2023-05-14T12:17:02.024Z,22.26
2023-05-14T12:18:22.940Z,22.43
2023-05-14T12:19:25.958Z,22.71
2023-05-14T12:20:29.997Z,22.46
2023-05-14T12:21:32.412Z,22.30
2023-05-14T12:22:36.388Z,22.23
2023-05-14T12:23:39.719Z,22.16
2023-05-14T12:24:43.728Z,22.27
2023-05-14T12:25:52.946Z,22.09
2023-05-14T12:26:55.554Z,21.94
2023-05-14T12:27:57.921Z,21.96
2023-05-14T12:29:01.256Z,21.71
2023-05-14T12:31:10.860Z,21.33
2023-05-14T12:32:13.074Z,21.27
2023-05-14T12:33:16.352Z,21.18
2023-05-14T12:34:18.654Z,21.16
2023-05-14T12:35:22.624Z,21.23
2023-05-14T12:36:25.777Z,21.52
2023-05-14T12:37:30.060Z,21.66
2023-05-14T12:38:33.566Z,21.16
2023-05-14T12:39:35.845Z,21.28
2023-05-14T12:40:38.129Z,21.26
2023-05-14T12:41:40.915Z,21.55
2023-05-14T12:42:43.116Z,21.61
2023-05-14T12:43:48.688Z,21.40
2023-05-14T12:44:50.953Z,21.64
2023-05-14T12:45:53.142Z,21.60
2023-05-14T12:46:55.506Z,21.37
2023-05-14T12:47:59.547Z,21.35
2023-05-14T12:49:01.837Z,21.67
2023-05-14T12:50:05.098Z,21.61
2023-05-14T12:51:07.359Z,21.46
2023-05-14T12:52:22.824Z,21.55
2023-05-14T12:53:31.920Z,21.13
2023-05-14T12:54:34.117Z,20.96
2023-05-14T12:55:36.354Z,21.01
2023-05-14T12:56:39.335Z,21.02
2023-05-14T12:57:41.809Z,20.85
2023-05-14T12:58:44.128Z,20.91
2023-05-14T12:59:46.308Z,21.09
2023-05-14T13:00:48.591Z,21.38
2023-05-14T13:01:50.839Z,21.53
2023-05-14T13:02:53.051Z,21.27
2023-05-14T13:03:55.618Z,21.25
2023-05-14T13:04:57.920Z,21.29
2023-05-14T13:06:00.474Z,21.37
2023-05-14T13:07:03.480Z,21.26
2023-05-14T13:08:05.708Z,21.35
2023-05-14T13:09:08.716Z,21.39
2023-05-14T13:10:11.591Z,21.62
2023-05-14T13:11:14.099Z,21.75
2023-05-14T13:12:16.345Z,21.85
2023-05-14T13:13:18.497Z,21.86
2023-05-14T13:14:20.699Z,21.95
2023-05-14T13:15:23.256Z,21.94
2023-05-14T13:16:27.389Z,21.97
2023-05-14T13:17:30.522Z,21.91
2023-05-14T13:18:32.817Z,21.94
2023-05-14T13:19:35.255Z,22.01
2023-05-14T13:20:43.113Z,21.94
2023-05-14T13:21:45.525Z,21.96
2023-05-14T13:22:47.909Z,22.01
2023-05-14T13:23:50.133Z,21.98
2023-05-14T13:24:52.323Z,22.02
2023-05-14T13:25:54.512Z,22.13
2023-05-14T13:26:56.910Z,22.07
2023-05-14T13:28:00.157Z,22.12
2023-05-14T13:29:02.458Z,22.18
2023-05-14T13:30:04.947Z,21.94
2023-05-14T13:31:12.294Z,21.98
2023-05-14T13:32:14.652Z,21.93
2023-05-14T13:33:16.817Z,21.87
2023-05-14T13:34:19.217Z,21.71
2023-05-14T13:35:21.568Z,21.67
2023-05-14T13:36:23.945Z,21.23
2023-05-14T13:37:26.588Z,21.15
2023-05-14T13:38:29.012Z,21.14
2023-05-14T13:39:31.207Z,20.70
2023-05-14T13:40:33.856Z,20.75